sensor_id;sensor_type;location;lat;lon;timestamp;P1;durP1;ratioP1;P2;durP2;ratioP2
62110;SDS011;48102;47.526;19.072;2022-10-26T03:46:44;4.03;;;3.65;;
62110;SDS011;48102;47.526;19.072;2022-10-26T03:49:47;8.48;;;5.47;;
62110;SDS011;48102;47.526;19.072;2022-10-26T03:52:49;4.32;;;3.92;;
62110;SDS011;48102;47.526;19.072;2022-10-26T03:58:55;4.45;;;3.65;;
62110;SDS011;48102;47.526;19.072;2022-10-26T04:01:58;5.62;;;3.60;;
62110;SDS011;48102;47.526;19.072;2022-10-26T04:05:01;5.90;;;3.70;;
62110;SDS011;48102;47.526;19.072;2022-10-26T04:08:03;6.53;;;3.58;;
62110;SDS011;48102;47.526;19.072;2022-10-26T04:14:09;4.10;;;3.40;;
62110;SDS011;48102;47.526;19.072;2022-10-26T04:17:12;7.43;;;4.95;;
62110;SDS011;48102;47.526;19.072;2022-10-26T04:20:14;5.37;;;3.40;;
62110;SDS011;48102;47.526;19.072;2022-10-26T04:23:18;5.05;;;3.33;;
62110;SDS011;48102;47.526;19.072;2022-10-26T04:26:21;4.00;;;3.58;;
62110;SDS011;48102;47.526;19.072;2022-10-26T04:29:23;8.55;;;3.70;;
62110;SDS011;48102;47.526;19.072;2022-10-26T04:32:26;8.67;;;4.03;;
62110;SDS011;48102;47.526;19.072;2022-10-26T04:35:29;5.22;;;3.42;;
62110;SDS011;48102;47.526;19.072;2022-10-26T04:38:32;6.50;;;3.42;;
62110;SDS011;48102;47.526;19.072;2022-10-26T04:41:34;4.00;;;3.12;;
62110;SDS011;48102;47.526;19.072;2022-10-26T04:44:37;4.57;;;3.17;;
62110;SDS011;48102;47.526;19.072;2022-10-26T04:47:40;6.18;;;3.65;;
62110;SDS011;48102;47.526;19.072;2022-10-26T04:53:46;5.12;;;3.75;;
62110;SDS011;48102;47.526;19.072;2022-10-26T04:56:49;4.37;;;3.20;;
62110;SDS011;48102;47.526;19.072;2022-10-26T04:59:58;4.97;;;3.85;;
62110;SDS011;48102;47.526;19.072;2022-10-26T05:03:02;8.45;;;3.85;;
62110;SDS011;48102;47.526;19.072;2022-10-26T05:06:06;6.70;;;4.75;;
62110;SDS011;48102;47.526;19.072;2022-10-26T05:09:09;12.18;;;5.68;;
62110;SDS011;48102;47.526;19.072;2022-10-26T05:12:11;5.78;;;4.82;;
62110;SDS011;48102;47.526;19.072;2022-10-26T05:15:14;8.35;;;4.87;;
62110;SDS011;48102;47.526;19.072;2022-10-26T05:18:17;5.75;;;4.85;;
62110;SDS011;48102;47.526;19.072;2022-10-26T05:21:19;7.60;;;5.70;;
62110;SDS011;48102;47.526;19.072;2022-10-26T05:24:22;6.70;;;4.95;;
62110;SDS011;48102;47.526;19.072;2022-10-26T05:27:25;14.63;;;7.00;;
62110;SDS011;48102;47.526;19.072;2022-10-26T05:30:27;11.80;;;6.60;;
62110;SDS011;48102;47.526;19.072;2022-10-26T05:33:31;6.70;;;5.20;;
62110;SDS011;48102;47.526;19.072;2022-10-26T05:36:33;8.48;;;6.07;;
62110;SDS011;48102;47.526;19.072;2022-10-26T05:39:36;9.73;;;5.87;;
62110;SDS011;48102;47.526;19.072;2022-10-26T05:42:39;8.00;;;5.70;;
62110;SDS011;48102;47.526;19.072;2022-10-26T05:45:41;10.50;;;6.35;;
62110;SDS011;48102;47.526;19.072;2022-10-26T05:48:44;8.02;;;6.50;;
62110;SDS011;48102;47.526;19.072;2022-10-26T05:51:46;6.45;;;5.10;;
62110;SDS011;48102;47.526;19.072;2022-10-26T05:54:50;11.07;;;5.87;;
62110;SDS011;48102;47.526;19.072;2022-10-26T05:57:53;11.52;;;6.28;;
62110;SDS011;48102;47.526;19.072;2022-10-26T06:01:39;8.68;;;6.43;;
62110;SDS011;48102;47.526;19.072;2022-10-26T06:04:42;14.07;;;6.87;;
62110;SDS011;48102;47.526;19.072;2022-10-26T06:07:49;9.50;;;6.40;;
62110;SDS011;48102;47.526;19.072;2022-10-26T06:10:53;9.55;;;7.07;;
62110;SDS011;48102;47.526;19.072;2022-10-26T06:13:57;13.35;;;6.90;;
62110;SDS011;48102;47.526;19.072;2022-10-26T06:17:10;7.05;;;6.07;;
62110;SDS011;48102;47.526;19.072;2022-10-26T06:30:55;8.30;;;6.40;;
62110;SDS011;48102;47.526;19.072;2022-10-26T06:33:59;7.60;;;6.30;;
62110;SDS011;48102;47.526;19.072;2022-10-26T06:40:06;18.73;;;6.93;;
62110;SDS011;48102;47.526;19.072;2022-10-26T06:43:12;9.50;;;5.95;;
62110;SDS011;48102;47.526;19.072;2022-10-26T06:52:59;7.40;;;6.07;;
62110;SDS011;48102;47.526;19.072;2022-10-26T06:56:29;8.15;;;6.53;;
62110;SDS011;48102;47.526;19.072;2022-10-26T06:59:37;13.82;;;6.22;;
62110;SDS011;48102;47.526;19.072;2022-10-26T07:02:43;6.15;;;5.25;;
62110;SDS011;48102;47.526;19.072;2022-10-26T07:05:45;6.78;;;5.75;;
62110;SDS011;48102;47.526;19.072;2022-10-26T07:08:49;8.80;;;6.00;;
62110;SDS011;48102;47.526;19.072;2022-10-26T07:11:52;17.95;;;6.97;;
62110;SDS011;48102;47.526;19.072;2022-10-26T07:14:55;9.15;;;5.90;;
62110;SDS011;48102;47.526;19.072;2022-10-26T07:17:57;11.05;;;6.25;;
62110;SDS011;48102;47.526;19.072;2022-10-26T07:21:00;7.57;;;6.70;;
62110;SDS011;48102;47.526;19.072;2022-10-26T07:24:02;10.45;;;6.78;;
62110;SDS011;48102;47.526;19.072;2022-10-26T07:27:06;16.62;;;7.43;;
62110;SDS011;48102;47.526;19.072;2022-10-26T07:30:09;9.10;;;6.45;;
62110;SDS011;48102;47.526;19.072;2022-10-26T07:33:12;10.02;;;7.32;;
62110;SDS011;48102;47.526;19.072;2022-10-26T07:36:15;12.32;;;7.25;;
62110;SDS011;48102;47.526;19.072;2022-10-26T07:39:18;11.32;;;7.47;;
62110;SDS011;48102;47.526;19.072;2022-10-26T07:42:22;11.38;;;7.45;;
62110;SDS011;48102;47.526;19.072;2022-10-26T07:45:25;14.63;;;8.30;;
62110;SDS011;48102;47.526;19.072;2022-10-26T07:48:29;8.93;;;7.78;;
62110;SDS011;48102;47.526;19.072;2022-10-26T07:51:32;10.45;;;7.60;;
62110;SDS011;48102;47.526;19.072;2022-10-26T07:54:35;10.50;;;8.38;;
62110;SDS011;48102;47.526;19.072;2022-10-26T07:57:40;11.05;;;7.22;;
62110;SDS011;48102;47.526;19.072;2022-10-26T08:03:45;8.90;;;6.80;;
62110;SDS011;48102;47.526;19.072;2022-10-26T08:06:48;10.73;;;7.60;;
62110;SDS011;48102;47.526;19.072;2022-10-26T08:09:52;9.55;;;7.60;;
62110;SDS011;48102;47.526;19.072;2022-10-26T08:12:54;8.18;;;5.93;;
62110;SDS011;48102;47.526;19.072;2022-10-26T08:16:01;11.10;;;5.75;;
62110;SDS011;48102;47.526;19.072;2022-10-26T08:19:06;6.50;;;5.57;;
62110;SDS011;48102;47.526;19.072;2022-10-26T08:22:09;9.55;;;6.68;;
62110;SDS011;48102;47.526;19.072;2022-10-26T08:25:11;6.90;;;6.07;;
62110;SDS011;48102;47.526;19.072;2022-10-26T08:28:20;7.75;;;6.00;;
62110;SDS011;48102;47.526;19.072;2022-10-26T08:31:23;10.20;;;6.72;;
62110;SDS011;48102;47.526;19.072;2022-10-26T08:34:26;10.80;;;6.12;;
62110;SDS011;48102;47.526;19.072;2022-10-26T08:37:28;6.78;;;5.80;;
62110;SDS011;48102;47.526;19.072;2022-10-26T08:40:32;7.28;;;5.62;;
62110;SDS011;48102;47.526;19.072;2022-10-26T08:43:39;6.82;;;5.28;;
62110;SDS011;48102;47.526;19.072;2022-10-26T08:46:49;8.10;;;5.85;;
62110;SDS011;48102;47.526;19.072;2022-10-26T08:50:02;12.65;;;6.40;;
62110;SDS011;48102;47.526;19.072;2022-10-26T08:56:39;5.90;;;4.85;;
62110;SDS011;48102;47.526;19.072;2022-10-26T09:02:56;7.00;;;5.78;;
62110;SDS011;48102;47.526;19.072;2022-10-26T09:06:12;6.53;;;5.90;;
62110;SDS011;48102;47.526;19.072;2022-10-26T09:12:58;10.07;;;6.18;;
62110;SDS011;48102;47.526;19.072;2022-10-26T09:16:13;11.82;;;6.10;;
62110;SDS011;48102;47.526;19.072;2022-10-26T09:26:26;9.68;;;6.07;;
62110;SDS011;48102;47.526;19.072;2022-10-26T09:29:35;7.93;;;5.73;;
62110;SDS011;48102;47.526;19.072;2022-10-26T09:32:45;8.43;;;5.75;;
62110;SDS011;48102;47.526;19.072;2022-10-26T09:36:00;8.85;;;5.78;;
62110;SDS011;48102;47.526;19.072;2022-10-26T09:39:22;8.27;;;6.68;;
62110;SDS011;48102;47.526;19.072;2022-10-26T09:42:36;9.35;;;6.10;;
62110;SDS011;48102;47.526;19.072;2022-10-26T09:45:45;6.47;;;5.70;;
62110;SDS011;48102;47.526;19.072;2022-10-26T09:48:59;8.10;;;4.95;;
62110;SDS011;48102;47.526;19.072;2022-10-26T09:52:06;6.87;;;5.05;;
62110;SDS011;48102;47.526;19.072;2022-10-26T09:55:11;5.70;;;4.03;;
62110;SDS011;48102;47.526;19.072;2022-10-26T09:58:20;5.68;;;3.22;;
62110;SDS011;48102;47.526;19.072;2022-10-26T10:04:45;5.18;;;3.75;;
62110;SDS011;48102;47.526;19.072;2022-10-26T10:07:49;5.90;;;4.12;;
62110;SDS011;48102;47.526;19.072;2022-10-26T10:11:00;8.55;;;4.25;;
62110;SDS011;48102;47.526;19.072;2022-10-26T10:14:07;6.35;;;4.00;;
62110;SDS011;48102;47.526;19.072;2022-10-26T10:17:24;4.57;;;3.45;;
62110;SDS011;48102;47.526;19.072;2022-10-26T10:20:29;6.35;;;3.42;;
62110;SDS011;48102;47.526;19.072;2022-10-26T10:23:35;3.72;;;3.22;;
62110;SDS011;48102;47.526;19.072;2022-10-26T10:30:22;5.28;;;3.53;;
62110;SDS011;48102;47.526;19.072;2022-10-26T10:33:37;8.65;;;4.20;;
62110;SDS011;48102;47.526;19.072;2022-10-26T10:36:42;6.32;;;4.37;;
62110;SDS011;48102;47.526;19.072;2022-10-26T10:39:45;6.43;;;4.90;;
62110;SDS011;48102;47.526;19.072;2022-10-26T10:42:49;7.30;;;4.87;;
62110;SDS011;48102;47.526;19.072;2022-10-26T10:45:55;7.72;;;5.72;;
62110;SDS011;48102;47.526;19.072;2022-10-26T10:49:03;9.52;;;5.68;;
62110;SDS011;48102;47.526;19.072;2022-10-26T10:52:07;8.57;;;5.10;;
62110;SDS011;48102;47.526;19.072;2022-10-26T10:55:25;10.85;;;6.30;;
62110;SDS011;48102;47.526;19.072;2022-10-26T11:02:32;8.18;;;5.37;;
62110;SDS011;48102;47.526;19.072;2022-10-26T11:09:20;7.65;;;5.62;;
62110;SDS011;48102;47.526;19.072;2022-10-26T11:12:33;9.63;;;5.80;;
62110;SDS011;48102;47.526;19.072;2022-10-26T11:15:47;10.38;;;5.57;;
62110;SDS011;48102;47.526;19.072;2022-10-26T11:22:10;9.57;;;5.87;;
62110;SDS011;48102;47.526;19.072;2022-10-26T11:25:21;10.50;;;6.43;;
62110;SDS011;48102;47.526;19.072;2022-10-26T11:31:52;11.55;;;6.82;;
62110;SDS011;48102;47.526;19.072;2022-10-26T11:35:14;9.38;;;5.90;;
62110;SDS011;48102;47.526;19.072;2022-10-26T11:42:10;12.40;;;6.53;;
62110;SDS011;48102;47.526;19.072;2022-10-26T11:45:30;10.23;;;6.03;;
62110;SDS011;48102;47.526;19.072;2022-10-26T11:52:04;9.60;;;6.12;;
62110;SDS011;48102;47.526;19.072;2022-10-26T11:55:12;12.13;;;6.78;;
62110;SDS011;48102;47.526;19.072;2022-10-26T11:58:15;11.35;;;6.65;;
62110;SDS011;48102;47.526;19.072;2022-10-26T12:01:19;13.20;;;6.80;;
62110;SDS011;48102;47.526;19.072;2022-10-26T12:04:24;11.30;;;7.20;;
62110;SDS011;48102;47.526;19.072;2022-10-26T12:07:32;17.42;;;7.10;;
62110;SDS011;48102;47.526;19.072;2022-10-26T12:10:40;10.95;;;6.78;;
62110;SDS011;48102;47.526;19.072;2022-10-26T12:13:46;11.90;;;8.10;;
62110;SDS011;48102;47.526;19.072;2022-10-26T12:20:00;10.38;;;7.68;;
62110;SDS011;48102;47.526;19.072;2022-10-26T12:23:07;9.98;;;7.22;;
62110;SDS011;48102;47.526;19.072;2022-10-26T12:35:45;11.93;;;7.43;;
62110;SDS011;48102;47.526;19.072;2022-10-26T12:38:55;9.40;;;7.65;;
62110;SDS011;48102;47.526;19.072;2022-10-26T12:42:25;9.05;;;7.35;;
62110;SDS011;48102;47.526;19.072;2022-10-26T12:45:31;10.50;;;7.37;;
62110;SDS011;48102;47.526;19.072;2022-10-26T12:48:42;10.35;;;7.20;;
62110;SDS011;48102;47.526;19.072;2022-10-26T12:51:49;10.07;;;7.18;;
62110;SDS011;48102;47.526;19.072;2022-10-26T12:55:01;9.25;;;7.20;;
62110;SDS011;48102;47.526;19.072;2022-10-26T13:01:46;8.43;;;6.57;;
62110;SDS011;48102;47.526;19.072;2022-10-26T13:08:10;11.23;;;7.50;;
62110;SDS011;48102;47.526;19.072;2022-10-26T13:11:19;11.52;;;7.05;;
62110;SDS011;48102;47.526;19.072;2022-10-26T13:14:34;14.60;;;7.93;;
62110;SDS011;48102;47.526;19.072;2022-10-26T13:17:40;12.00;;;7.45;;
62110;SDS011;48102;47.526;19.072;2022-10-26T13:24:04;10.82;;;7.87;;
62110;SDS011;48102;47.526;19.072;2022-10-26T13:30:19;10.90;;;7.65;;
62110;SDS011;48102;47.526;19.072;2022-10-26T13:33:36;12.02;;;7.87;;
62110;SDS011;48102;47.526;19.072;2022-10-26T13:40:09;16.35;;;8.30;;
62110;SDS011;48102;47.526;19.072;2022-10-26T13:43:19;10.80;;;9.18;;
62110;SDS011;48102;47.526;19.072;2022-10-26T13:46:25;10.00;;;7.50;;
62110;SDS011;48102;47.526;19.072;2022-10-26T13:49:30;13.15;;;8.68;;
62110;SDS011;48102;47.526;19.072;2022-10-26T13:52:42;11.02;;;8.02;;
62110;SDS011;48102;47.526;19.072;2022-10-26T13:55:52;13.23;;;8.20;;
62110;SDS011;48102;47.526;19.072;2022-10-26T13:59:02;12.97;;;7.80;;
62110;SDS011;48102;47.526;19.072;2022-10-26T14:02:23;11.77;;;8.25;;
62110;SDS011;48102;47.526;19.072;2022-10-26T14:05:27;10.88;;;7.75;;
62110;SDS011;48102;47.526;19.072;2022-10-26T14:08:30;11.57;;;7.82;;
62110;SDS011;48102;47.526;19.072;2022-10-26T14:11:34;10.25;;;7.78;;
62110;SDS011;48102;47.526;19.072;2022-10-26T14:14:44;12.27;;;7.95;;
62110;SDS011;48102;47.526;19.072;2022-10-26T14:17:49;11.60;;;7.82;;
62110;SDS011;48102;47.526;19.072;2022-10-26T14:20:58;12.45;;;7.62;;
62110;SDS011;48102;47.526;19.072;2022-10-26T14:24:03;12.57;;;7.20;;
62110;SDS011;48102;47.526;19.072;2022-10-26T14:27:15;12.73;;;7.37;;
62110;SDS011;48102;47.526;19.072;2022-10-26T14:33:29;13.65;;;7.97;;
62110;SDS011;48102;47.526;19.072;2022-10-26T14:36:32;12.05;;;7.50;;
62110;SDS011;48102;47.526;19.072;2022-10-26T14:39:41;15.10;;;8.10;;
62110;SDS011;48102;47.526;19.072;2022-10-26T14:42:47;14.10;;;7.78;;
62110;SDS011;48102;47.526;19.072;2022-10-26T14:45:54;11.77;;;7.60;;
62110;SDS011;48102;47.526;19.072;2022-10-26T14:48:59;11.18;;;7.18;;
62110;SDS011;48102;47.526;19.072;2022-10-26T14:52:03;12.85;;;8.57;;
62110;SDS011;48102;47.526;19.072;2022-10-26T14:55:12;11.07;;;8.18;;
62110;SDS011;48102;47.526;19.072;2022-10-26T14:58:21;11.40;;;7.68;;
62110;SDS011;48102;47.526;19.072;2022-10-26T15:01:29;9.95;;;7.20;;
62110;SDS011;48102;47.526;19.072;2022-10-26T15:04:38;13.48;;;7.85;;
62110;SDS011;48102;47.526;19.072;2022-10-26T15:07:42;13.95;;;7.47;;
62110;SDS011;48102;47.526;19.072;2022-10-26T15:10:45;13.10;;;7.85;;
62110;SDS011;48102;47.526;19.072;2022-10-26T15:13:49;13.52;;;7.30;;
62110;SDS011;48102;47.526;19.072;2022-10-26T15:16:54;13.40;;;6.85;;
62110;SDS011;48102;47.526;19.072;2022-10-26T15:20:05;12.07;;;8.02;;
62110;SDS011;48102;47.526;19.072;2022-10-26T15:23:11;11.02;;;7.40;;
62110;SDS011;48102;47.526;19.072;2022-10-26T15:26:15;10.82;;;7.50;;
62110;SDS011;48102;47.526;19.072;2022-10-26T15:29:35;10.20;;;6.32;;
62110;SDS011;48102;47.526;19.072;2022-10-26T15:32:38;10.38;;;6.90;;
62110;SDS011;48102;47.526;19.072;2022-10-26T15:35:42;11.85;;;6.95;;
